Time;durP1;ratioP1;P1;durP2;ratioP2;P2;SDS_P1;SDS_P2;PMS_P1;PMS_P2;Temp;Humidity;BMP_temperature;BMP_pressure;BME280_temperature;BME280_humidity;BME280_pressure;Samples;Min_cycle;Max_cycle;Signal;HPM_P1;HPM_P2
2023/08/28 00:01:32;;;;;;;3.17;2.33;;;13.80;99.90;;;;;;5043038;28;20524;-60
2023/08/28 00:03:57;;;;;;;3.47;2.40;;;13.80;99.90;;;;;;5042506;28;20433;-60
2023/08/28 00:06:23;;;;;;;5.23;2.23;;;13.80;99.90;;;;;;5044769;28;20175;-60
2023/08/28 00:08:49;;;;;;;3.40;2.70;;;13.80;99.90;;;;;;5042492;28;20262;-61
2023/08/28 00:11:14;;;;;;;4.30;2.93;;;13.80;99.90;;;;;;5046998;28;20832;-60
2023/08/28 00:13:40;;;;;;;8.50;3.10;;;13.80;99.90;;;;;;5044445;28;20194;-60
2023/08/28 00:16:05;;;;;;;4.63;2.50;;;13.80;99.90;;;;;;5045221;28;20743;-60
2023/08/28 00:18:31;;;;;;;9.53;4.40;;;13.90;99.90;;;;;;5049918;28;20195;-62
2023/08/28 00:20:56;;;;;;;5.13;2.97;;;13.90;99.90;;;;;;5044206;28;20214;-59
2023/08/28 00:23:22;;;;;;;4.20;2.90;;;13.90;99.90;;;;;;5042297;28;20175;-61
2023/08/28 00:25:48;;;;;;;6.90;3.47;;;13.90;99.90;;;;;;5048512;28;20171;-60
2023/08/28 00:28:13;;;;;;;3.57;3.23;;;13.90;99.90;;;;;;5047156;28;20175;-60
2023/08/28 00:30:39;;;;;;;4.27;3.80;;;13.90;99.90;;;;;;5041561;28;20264;-60
2023/08/28 00:33:04;;;;;;;9.37;3.77;;;13.90;99.90;;;;;;5044516;28;20200;-59
2023/08/28 00:35:30;;;;;;;4.13;3.40;;;13.90;99.90;;;;;;5048691;28;20179;-59
2023/08/28 00:37:55;;;;;;;5.03;3.40;;;13.90;99.90;;;;;;5043970;28;20199;-62
2023/08/28 00:40:21;;;;;;;4.80;2.73;;;13.90;99.90;;;;;;5038729;28;20256;-60
2023/08/28 00:42:47;;;;;;;2.27;2.07;;;13.90;99.90;;;;;;5048210;28;20821;-60
2023/08/28 00:45:12;;;;;;;11.03;2.60;;;13.90;99.90;;;;;;5045607;28;20183;-61
2023/08/28 00:47:39;;;;;;;2.83;2.47;;;13.80;99.90;;;;;;5039095;28;20172;-61
2023/08/28 00:50:05;;;;;;;6.00;2.50;;;13.80;99.90;;;;;;5040363;28;20218;-61
2023/08/28 00:52:31;;;;;;;3.67;2.60;;;13.80;99.90;;;;;;5044321;28;20446;-60
2023/08/28 00:54:57;;;;;;;3.27;2.70;;;13.80;99.90;;;;;;5045354;28;21029;-60
2023/08/28 00:57:24;;;;;;;5.20;3.10;;;13.80;99.90;;;;;;5042545;28;20467;-60
2023/08/28 00:59:49;;;;;;;4.87;2.50;;;13.80;99.90;;;;;;5042792;28;20199;-61
2023/08/28 01:02:15;;;;;;;10.10;2.87;;;13.80;99.90;;;;;;5041180;28;21071;-61
2023/08/28 01:04:40;;;;;;;7.17;3.00;;;13.90;99.90;;;;;;5047767;28;20186;-60
2023/08/28 01:07:22;;;;;;;3.90;2.63;;;13.90;99.90;;;;;;5043058;28;20176;-61
2023/08/28 01:10:09;;;;;;;2.90;2.70;;;13.90;99.90;;;;;;5040861;28;20232;-60
2023/08/28 01:13:01;;;;;;;7.33;3.03;;;13.90;99.90;;;;;;5046956;28;20469;-60
2023/08/28 01:15:27;;;;;;;3.13;2.83;;;13.90;99.90;;;;;;5044735;28;20520;-60
2023/08/28 01:18:02;;;;;;;3.77;3.00;;;13.90;99.90;;;;;;5043604;28;20460;-60
2023/08/28 01:20:30;;;;;;;3.33;2.97;;;13.90;99.90;;;;;;5047861;28;20503;-62
2023/08/28 01:22:55;;;;;;;7.50;3.40;;;13.90;99.90;;;;;;5046506;28;20469;-60
2023/08/28 01:25:22;;;;;;;5.30;3.40;;;13.90;99.90;;;;;;5045669;28;20453;-60
2023/08/28 01:27:47;;;;;;;4.80;3.63;;;13.90;99.90;;;;;;5044987;28;20187;-60
2023/08/28 01:30:15;;;;;;;4.33;3.43;;;13.90;99.90;;;;;;5045126;28;20941;-60
2023/08/28 01:32:43;;;;;;;13.43;3.17;;;13.90;99.90;;;;;;5048425;28;20242;-60
2023/08/28 01:35:14;;;;;;;4.93;3.47;;;13.90;99.90;;;;;;5047003;28;20797;-60
2023/08/28 01:38:21;;;;;;;3.97;3.00;;;13.90;99.90;;;;;;5045989;28;20444;-60
2023/08/28 01:40:50;;;;;;;3.63;3.13;;;13.90;99.90;;;;;;5041685;28;20833;-60
2023/08/28 01:43:20;;;;;;;5.90;3.40;;;13.90;99.90;;;;;;5038604;28;20543;-60
2023/08/28 01:45:47;;;;;;;5.40;3.43;;;13.90;99.90;;;;;;5043063;28;20429;-60
2023/08/28 01:48:12;;;;;;;4.07;3.00;;;13.90;99.90;;;;;;5044513;28;20894;-62
2023/08/28 01:50:38;;;;;;;4.40;3.20;;;13.80;99.90;;;;;;5046199;28;20434;-60
2023/08/28 01:53:04;;;;;;;4.43;3.27;;;13.80;99.90;;;;;;5050005;28;20207;-60
2023/08/28 01:55:49;;;;;;;9.70;4.10;;;13.80;99.90;;;;;;5046717;28;20590;-60
2023/08/28 01:58:15;;;;;;;7.90;5.07;;;13.80;99.90;;;;;;5042539;28;20205;-61
2023/08/28 02:00:41;;;;;;;10.40;4.47;;;13.80;99.90;;;;;;5048897;28;20449;-61
2023/08/28 02:03:10;;;;;;;5.77;3.97;;;13.80;99.90;;;;;;5044661;28;20453;-60
2023/08/28 02:05:36;;;;;;;10.60;3.63;;;13.80;99.90;;;;;;5045086;28;20182;-60
2023/08/28 02:08:02;;;;;;;6.77;3.87;;;13.80;99.90;;;;;;5051662;28;20425;-60
2023/08/28 02:10:27;;;;;;;4.80;4.00;;;13.80;99.90;;;;;;5051201;28;20435;-61
2023/08/28 02:12:53;;;;;;;7.60;4.43;;;13.80;99.90;;;;;;5044730;28;20891;-60
2023/08/28 02:15:19;;;;;;;4.53;3.60;;;13.70;99.90;;;;;;5040909;28;20188;-60
2023/08/28 02:17:45;;;;;;;4.73;3.93;;;13.70;99.90;;;;;;5050753;28;20203;-60
2023/08/28 02:20:10;;;;;;;4.47;4.07;;;13.70;99.90;;;;;;5049817;28;20981;-61
2023/08/28 02:22:36;;;;;;;7.80;3.60;;;13.70;99.90;;;;;;5046930;28;20688;-61
2023/08/28 02:25:02;;;;;;;6.30;3.80;;;13.60;99.90;;;;;;5048213;28;20254;-60
2023/08/28 02:27:27;;;;;;;4.90;3.90;;;13.60;99.90;;;;;;5044309;28;20258;-63
2023/08/28 02:29:53;;;;;;;8.13;4.87;;;13.60;99.90;;;;;;5043703;28;20287;-60
2023/08/28 02:32:19;;;;;;;8.57;4.90;;;13.60;99.90;;;;;;5045396;28;20214;-60
2023/08/28 02:34:44;;;;;;;9.90;4.07;;;13.50;99.90;;;;;;5048449;28;20245;-61
2023/08/28 02:37:10;;;;;;;5.27;4.07;;;13.50;99.90;;;;;;5045010;28;20228;-59
2023/08/28 02:39:36;;;;;;;7.30;4.93;;;13.50;99.90;;;;;;5043179;28;20199;-61
2023/08/28 02:42:01;;;;;;;10.87;4.50;;;13.50;99.90;;;;;;5040329;28;20285;-60
2023/08/28 02:44:27;;;;;;;18.03;4.70;;;13.50;99.90;;;;;;5042505;28;20464;-60
2023/08/28 02:46:53;;;;;;;5.60;4.47;;;13.40;99.90;;;;;;5044751;28;20647;-61
2023/08/28 02:49:18;;;;;;;5.87;4.53;;;13.40;99.90;;;;;;5043275;28;20842;-60
2023/08/28 02:51:44;;;;;;;6.30;4.67;;;13.40;99.90;;;;;;5050492;28;20195;-61
2023/08/28 02:54:09;;;;;;;5.40;4.73;;;13.50;99.90;;;;;;5050406;28;20273;-61
2023/08/28 02:56:38;;;;;;;6.80;4.13;;;13.50;99.90;;;;;;5044550;28;20179;-60
2023/08/28 02:59:04;;;;;;;3.63;3.23;;;13.50;99.90;;;;;;5048488;28;20208;-60
2023/08/28 03:01:34;;;;;;;5.33;4.47;;;13.50;99.90;;;;;;5044808;28;20504;-60
2023/08/28 03:04:06;;;;;;;5.93;3.77;;;13.50;99.90;;;;;;5047714;28;20432;-61
2023/08/28 03:06:39;;;;;;;6.00;3.77;;;13.40;99.90;;;;;;5047867;28;20918;-60
2023/08/28 03:09:07;;;;;;;6.10;4.40;;;13.50;99.90;;;;;;5046903;28;20801;-60
2023/08/28 03:11:36;;;;;;;5.77;3.93;;;13.50;99.90;;;;;;5044981;28;20495;-60
2023/08/28 03:14:02;;;;;;;5.97;4.20;;;13.50;99.90;;;;;;5046784;28;20524;-61
2023/08/28 03:16:28;;;;;;;6.60;4.70;;;13.50;99.90;;;;;;5047328;28;20421;-61
2023/08/28 03:18:54;;;;;;;5.30;4.60;;;13.50;99.90;;;;;;5049516;28;21011;-60
2023/08/28 03:21:19;;;;;;;5.80;3.90;;;13.50;99.90;;;;;;5040888;28;20214;-60
2023/08/28 03:23:45;;;;;;;11.60;6.50;;;13.50;99.90;;;;;;5045883;28;20184;-61
2023/08/28 03:26:11;;;;;;;8.03;4.90;;;13.50;99.90;;;;;;5050807;28;20308;-61
2023/08/28 03:28:36;;;;;;;6.10;4.10;;;13.50;99.90;;;;;;5049100;28;20267;-60
2023/08/28 03:31:02;;;;;;;10.60;5.10;;;13.50;99.90;;;;;;5041312;28;20179;-60
2023/08/28 03:33:28;;;;;;;6.73;4.23;;;13.60;99.90;;;;;;5047584;28;20198;-61
2023/08/28 03:35:54;;;;;;;3.30;2.90;;;13.60;99.90;;;;;;5046598;28;20186;-60
2023/08/28 03:38:20;;;;;;;3.60;2.80;;;13.60;99.90;;;;;;5043622;28;20474;-60
2023/08/28 03:40:46;;;;;;;4.13;2.57;;;13.50;99.90;;;;;;5037461;28;20266;-60
2023/08/28 03:43:12;;;;;;;2.70;2.50;;;13.50;99.90;;;;;;5047520;28;20203;-60
2023/08/28 03:45:39;;;;;;;2.70;2.40;;;13.50;99.90;;;;;;5048873;28;20437;-60
2023/08/28 03:48:05;;;;;;;3.07;2.10;;;13.40;99.90;;;;;;5047070;28;20433;-60
2023/08/28 03:50:31;;;;;;;4.97;2.33;;;13.40;99.90;;;;;;5047230;28;20440;-59
2023/08/28 03:53:01;;;;;;;3.13;2.47;;;13.40;99.90;;;;;;5045995;28;20459;-60
2023/08/28 03:55:30;;;;;;;3.93;2.63;;;13.40;99.90;;;;;;5045526;28;20171;-60
2023/08/28 03:57:57;;;;;;;7.03;3.80;;;13.40;99.90;;;;;;5047428;28;20461;-62
2023/08/28 04:00:23;;;;;;;2.67;2.47;;;13.40;99.90;;;;;;5046468;28;20988;-60
2023/08/28 04:02:50;;;;;;;2.93;2.23;;;13.30;99.90;;;;;;5046515;28;20961;-60
2023/08/28 04:05:16;;;;;;;3.50;2.60;;;13.30;99.90;;;;;;5048065;28;20427;-60
2023/08/28 04:07:44;;;;;;;5.07;2.50;;;13.40;99.90;;;;;;5043850;28;20429;-60
2023/08/28 04:10:11;;;;;;;2.33;2.13;;;13.30;99.90;;;;;;5043795;28;20187;-62
2023/08/28 04:12:38;;;;;;;3.20;2.13;;;13.30;99.90;;;;;;5044886;28;20943;-61
2023/08/28 04:15:04;;;;;;;3.30;2.70;;;13.40;99.90;;;;;;5047699;28;20430;-60
2023/08/28 04:17:30;;;;;;;3.60;3.03;;;13.40;99.90;;;;;;5043326;28;20421;-60
2023/08/28 04:19:56;;;;;;;5.60;2.53;;;13.40;99.90;;;;;;5047787;28;20477;-60
2023/08/28 04:22:22;;;;;;;5.10;2.40;;;13.40;99.90;;;;;;5048567;28;20934;-60
2023/08/28 04:24:52;;;;;;;4.50;2.53;;;13.30;99.90;;;;;;5045822;28;20468;-60
2023/08/28 04:27:18;;;;;;;3.70;2.37;;;13.30;99.90;;;;;;5041966;28;20460;-60
2023/08/28 04:29:44;;;;;;;13.03;3.60;;;13.40;99.90;;;;;;5042872;28;20524;-60
2023/08/28 04:32:09;;;;;;;12.87;3.73;;;13.40;99.90;;;;;;5044660;28;20541;-60
2023/08/28 04:34:36;;;;;;;12.17;3.50;;;13.40;99.90;;;;;;5048801;28;20198;-61
2023/08/28 04:37:02;;;;;;;4.07;2.57;;;13.40;99.90;;;;;;5048333;28;20183;-60
2023/08/28 04:39:30;;;;;;;8.00;2.73;;;13.40;99.90;;;;;;5040430;28;20476;-61
2023/08/28 04:41:56;;;;;;;5.00;2.93;;;13.40;99.90;;;;;;5032169;28;20204;-62
2023/08/28 04:44:21;;;;;;;3.10;2.80;;;13.40;99.90;;;;;;5041074;28;20436;-60
2023/08/28 04:46:47;;;;;;;2.90;2.70;;;13.40;99.90;;;;;;5046644;28;20175;-61
2023/08/28 04:49:14;;;;;;;7.43;3.03;;;13.40;99.90;;;;;;5045391;28;20178;-61
2023/08/28 04:51:40;;;;;;;6.00;2.70;;;13.40;99.90;;;;;;5048390;28;20289;-60
2023/08/28 04:54:06;;;;;;;2.93;2.63;;;13.30;99.90;;;;;;5048955;28;20862;-60
2023/08/28 04:56:32;;;;;;;5.47;2.67;;;13.30;99.90;;;;;;5046619;28;20175;-60
2023/08/28 04:58:57;;;;;;;9.43;2.90;;;13.20;99.90;;;;;;5046828;28;20242;-60
2023/08/28 05:01:24;;;;;;;3.70;2.87;;;13.20;99.90;;;;;;5043251;28;20596;-61
2023/08/28 05:03:49;;;;;;;3.40;2.57;;;13.20;99.90;;;;;;5041112;28;20179;-60
2023/08/28 05:06:15;;;;;;;4.00;2.40;;;13.20;99.90;;;;;;5048424;28;20429;-60
2023/08/28 05:08:41;;;;;;;3.77;2.73;;;13.20;99.90;;;;;;5045308;28;20183;-61
2023/08/28 05:11:06;;;;;;;3.03;2.50;;;13.20;99.90;;;;;;5044430;28;20341;-60
2023/08/28 05:13:32;;;;;;;7.90;2.70;;;13.20;99.90;;;;;;5041673;28;20550;-61
2023/08/28 05:15:57;;;;;;;5.00;2.53;;;13.20;99.90;;;;;;5048658;28;20175;-60
2023/08/28 05:18:23;;;;;;;3.60;2.70;;;13.20;99.90;;;;;;5041742;28;20199;-61
2023/08/28 05:20:49;;;;;;;5.27;3.03;;;13.20;99.90;;;;;;5044947;28;20175;-60
2023/08/28 05:23:14;;;;;;;3.20;2.60;;;13.10;99.90;;;;;;5042303;28;20171;-61
2023/08/28 05:25:40;;;;;;;4.33;2.87;;;13.20;99.90;;;;;;5051347;28;20309;-60
2023/08/28 05:28:06;;;;;;;4.00;2.50;;;13.10;99.90;;;;;;5044162;28;20183;-61
2023/08/28 05:30:31;;;;;;;4.07;2.93;;;13.10;99.90;;;;;;5044492;28;20570;-62
2023/08/28 05:32:57;;;;;;;3.23;2.50;;;13.10;99.90;;;;;;5039884;28;20235;-61
2023/08/28 05:35:22;;;;;;;2.80;2.50;;;13.10;99.90;;;;;;5038316;28;20664;-60
2023/08/28 05:37:50;;;;;;;3.60;2.67;;;13.10;99.90;;;;;;5045649;28;20179;-60
2023/08/28 05:40:15;;;;;;;3.87;2.33;;;13.10;99.90;;;;;;5039257;28;20202;-60
2023/08/28 05:42:44;;;;;;;2.80;2.60;;;13.20;99.90;;;;;;5046888;28;20472;-60
2023/08/28 05:45:10;;;;;;;5.60;2.80;;;13.20;99.90;;;;;;5047124;28;20721;-60
2023/08/28 05:47:36;;;;;;;3.47;2.60;;;13.20;99.90;;;;;;5042301;28;20923;-60
2023/08/28 05:50:03;;;;;;;2.50;2.30;;;13.20;99.90;;;;;;5046939;28;20432;-60
2023/08/28 05:52:29;;;;;;;3.73;2.40;;;13.20;99.90;;;;;;5043003;28;20865;-60
2023/08/28 05:54:54;;;;;;;5.50;2.33;;;13.20;99.90;;;;;;5060327;28;20488;-62
2023/08/28 05:57:20;;;;;;;3.87;2.60;;;13.20;99.90;;;;;;5042152;28;20245;-61
2023/08/28 05:59:46;;;;;;;4.90;2.83;;;13.20;99.90;;;;;;5047298;28;20195;-60
2023/08/28 06:02:13;;;;;;;3.73;2.30;;;13.20;99.90;;;;;;5044338;28;20829;-60
2023/08/28 06:04:38;;;;;;;4.10;2.40;;;13.30;99.90;;;;;;5043367;28;20184;-60
2023/08/28 06:07:04;;;;;;;3.40;2.50;;;13.30;99.90;;;;;;5045302;28;20424;-62
2023/08/28 06:09:30;;;;;;;5.90;2.40;;;13.30;99.90;;;;;;5050190;28;20175;-60
2023/08/28 06:11:56;;;;;;;5.30;2.80;;;13.30;99.90;;;;;;5042532;28;20253;-60
2023/08/28 06:14:22;;;;;;;4.37;2.87;;;13.30;99.90;;;;;;5037694;28;20425;-60
2023/08/28 06:16:48;;;;;;;7.60;3.60;;;13.30;99.90;;;;;;5047245;28;20580;-61
2023/08/28 06:19:13;;;;;;;4.10;3.17;;;13.30;99.90;;;;;;5049075;28;20239;-61
2023/08/28 06:21:43;;;;;;;4.20;3.63;;;13.30;99.90;;;;;;5047672;28;20691;-60
2023/08/28 06:24:09;;;;;;;4.27;2.93;;;13.30;99.90;;;;;;5049535;28;20250;-60
2023/08/28 06:26:34;;;;;;;3.90;2.70;;;13.30;99.90;;;;;;5042569;28;20549;-60
2023/08/28 06:29:00;;;;;;;2.57;2.37;;;13.30;99.90;;;;;;5048661;28;20883;-60
2023/08/28 06:31:25;;;;;;;3.77;2.53;;;13.30;99.90;;;;;;5043154;28;20198;-60
2023/08/28 06:33:51;;;;;;;4.90;2.50;;;13.30;99.90;;;;;;5048455;28;20183;-60
2023/08/28 06:36:17;;;;;;;2.40;2.20;;;13.30;99.90;;;;;;5047916;28;20179;-59
2023/08/28 06:38:42;;;;;;;5.90;2.00;;;13.30;99.90;;;;;;5047124;28;20233;-60
2023/08/28 06:41:08;;;;;;;4.40;2.13;;;13.30;99.90;;;;;;5033880;28;20272;-62
2023/08/28 06:43:33;;;;;;;8.33;3.20;;;13.30;99.90;;;;;;5046445;28;20254;-60
2023/08/28 06:45:59;;;;;;;2.47;2.27;;;13.30;99.90;;;;;;5047188;28;20644;-60
2023/08/28 06:48:24;;;;;;;2.30;2.10;;;13.30;99.90;;;;;;5044100;28;20206;-61
2023/08/28 06:50:51;;;;;;;5.13;2.20;;;13.30;99.90;;;;;;5046847;28;20187;-60
2023/08/28 06:53:17;;;;;;;3.03;2.10;;;13.30;99.90;;;;;;5048472;28;20195;-61
2023/08/28 06:55:43;;;;;;;2.80;2.03;;;13.30;99.90;;;;;;5047489;28;20437;-59
2023/08/28 06:58:08;;;;;;;3.50;2.53;;;13.30;99.90;;;;;;5044154;28;20211;-60
2023/08/28 07:00:34;;;;;;;4.00;2.63;;;13.30;99.90;;;;;;5038439;28;20480;-60
2023/08/28 07:02:59;;;;;;;2.60;2.20;;;13.40;99.90;;;;;;5037406;28;20199;-60
2023/08/28 07:05:25;;;;;;;3.30;2.10;;;13.40;99.90;;;;;;5044670;28;20184;-61
2023/08/28 07:07:51;;;;;;;2.40;2.20;;;13.40;99.90;;;;;;5051106;28;20186;-60
2023/08/28 07:10:16;;;;;;;1.70;1.60;;;13.40;99.90;;;;;;5046774;28;20223;-60
2023/08/28 07:12:42;;;;;;;3.83;1.80;;;13.40;99.90;;;;;;5047934;28;20207;-60
2023/08/28 07:15:13;;;;;;;2.17;2.00;;;13.40;99.90;;;;;;5048026;28;20175;-60
2023/08/28 07:17:39;;;;;;;1.83;1.73;;;13.40;99.90;;;;;;5044315;28;20673;-59
2023/08/28 07:20:06;;;;;;;6.33;2.00;;;13.40;99.90;;;;;;5043555;28;20523;-60
2023/08/28 07:22:31;;;;;;;2.93;2.10;;;13.40;99.90;;;;;;5045252;28;20199;-60
2023/08/28 07:24:57;;;;;;;3.90;2.10;;;13.40;99.90;;;;;;5048605;28;20433;-60
2023/08/28 07:27:23;;;;;;;2.97;2.30;;;13.40;99.90;;;;;;5044536;28;20210;-61
2023/08/28 07:29:48;;;;;;;2.43;2.00;;;13.50;99.90;;;;;;5046407;28;20248;-61
2023/08/28 07:32:14;;;;;;;3.97;2.00;;;13.50;99.90;;;;;;5047875;28;20199;-62
2023/08/28 07:34:40;;;;;;;1.90;1.63;;;13.50;99.90;;;;;;5047615;28;20218;-60
2023/08/28 07:37:05;;;;;;;5.33;2.13;;;13.50;99.90;;;;;;5041340;28;20613;-59
2023/08/28 07:39:31;;;;;;;10.00;3.17;;;13.60;99.90;;;;;;5043566;28;20256;-60
2023/08/28 07:41:57;;;;;;;4.47;2.73;;;13.60;99.90;;;;;;5046570;28;20237;-62
2023/08/28 07:44:23;;;;;;;3.00;2.70;;;13.60;99.90;;;;;;5041515;28;20171;-59
2023/08/28 07:46:49;;;;;;;4.10;3.00;;;13.60;99.90;;;;;;5043793;28;20440;-62
2023/08/28 07:49:15;;;;;;;7.50;2.70;;;13.60;99.90;;;;;;5044159;28;20182;-61
2023/08/28 07:51:40;;;;;;;6.60;3.10;;;13.60;99.90;;;;;;5049140;28;20728;-61
2023/08/28 07:54:06;;;;;;;8.10;2.57;;;13.60;99.90;;;;;;5040279;28;20187;-58
2023/08/28 07:56:31;;;;;;;5.03;2.93;;;13.60;99.90;;;;;;5045575;28;20655;-60
2023/08/28 07:58:57;;;;;;;3.77;2.80;;;13.60;99.90;;;;;;5040879;28;20234;-62
2023/08/28 08:01:23;;;;;;;8.40;3.00;;;13.70;99.90;;;;;;5044988;28;20215;-61
2023/08/28 08:03:49;;;;;;;4.10;3.00;;;13.70;99.90;;;;;;5041546;28;20215;-60
2023/08/28 08:06:16;;;;;;;3.63;2.33;;;13.80;99.90;;;;;;5037216;28;20230;-60
2023/08/28 08:08:44;;;;;;;5.80;2.50;;;13.80;99.90;;;;;;5041824;28;20449;-60
2023/08/28 08:11:10;;;;;;;4.33;2.30;;;13.90;99.90;;;;;;5036882;28;21110;-61
2023/08/28 08:13:35;;;;;;;3.20;2.40;;;13.90;99.90;;;;;;5036383;28;20537;-61
2023/08/28 08:16:01;;;;;;;5.20;2.93;;;14.00;99.90;;;;;;5044784;28;20175;-61
2023/08/28 08:18:26;;;;;;;2.97;2.07;;;14.10;99.90;;;;;;5045472;28;20207;-61
2023/08/28 08:20:52;;;;;;;2.30;2.10;;;14.20;99.90;;;;;;5044183;28;20179;-61
2023/08/28 08:23:18;;;;;;;4.43;2.17;;;14.30;99.90;;;;;;5046563;28;20644;-61
2023/08/28 08:25:43;;;;;;;4.37;2.40;;;14.40;99.90;;;;;;5039349;28;20187;-61
2023/08/28 08:28:09;;;;;;;3.43;2.27;;;14.40;99.90;;;;;;5038466;28;20273;-60
2023/08/28 08:30:34;;;;;;;5.50;2.90;;;14.40;99.90;;;;;;5046483;28;20206;-61
2023/08/28 08:33:00;;;;;;;3.67;2.80;;;14.50;99.90;;;;;;5034302;28;20199;-60
2023/08/28 08:35:26;;;;;;;3.77;2.90;;;14.50;99.90;;;;;;5043260;28;20179;-62
2023/08/28 08:37:52;;;;;;;4.87;3.20;;;14.50;99.90;;;;;;5046895;28;20175;-61
2023/08/28 08:40:22;;;;;;;8.80;3.70;;;14.50;99.90;;;;;;5034226;28;20425;-61
2023/08/28 08:42:48;;;;;;;5.43;3.00;;;14.50;99.90;;;;;;5039166;28;20476;-60
2023/08/28 08:45:14;;;;;;;5.97;2.73;;;14.60;99.90;;;;;;5045747;28;20418;-61
2023/08/28 08:47:41;;;;;;;4.77;2.40;;;14.60;99.90;;;;;;5047222;28;20224;-61
2023/08/28 08:50:09;;;;;;;4.93;2.40;;;14.70;99.90;;;;;;5043797;28;20509;-60
2023/08/28 08:52:38;;;;;;;3.30;2.40;;;14.70;99.90;;;;;;5043208;28;20453;-60
2023/08/28 08:55:15;;;;;;;4.40;2.70;;;14.70;99.90;;;;;;5041806;28;20575;-62
2023/08/28 08:57:45;;;;;;;5.47;3.00;;;14.70;99.90;;;;;;5034598;28;20441;-60
2023/08/28 09:00:13;;;;;;;3.30;2.40;;;14.70;99.90;;;;;;5041129;28;20580;-60
2023/08/28 09:02:41;;;;;;;2.37;2.00;;;14.70;99.90;;;;;;5045598;28;20461;-60
2023/08/28 09:05:09;;;;;;;7.70;3.00;;;14.70;99.90;;;;;;5046337;28;20418;-60
2023/08/28 09:07:36;;;;;;;2.60;2.40;;;14.70;99.90;;;;;;5045405;28;20425;-60
2023/08/28 09:10:03;;;;;;;5.00;1.93;;;14.70;99.90;;;;;;5044226;28;20425;-60
2023/08/28 09:12:28;;;;;;;3.80;2.30;;;14.70;99.90;;;;;;5044250;28;20454;-61
2023/08/28 09:14:54;;;;;;;4.53;1.90;;;14.70;99.90;;;;;;5044107;28;20467;-60
2023/08/28 09:17:21;;;;;;;4.13;2.20;;;14.70;99.90;;;;;;5043823;28;20183;-61
2023/08/28 09:19:47;;;;;;;2.70;2.43;;;14.70;99.90;;;;;;5042179;28;20195;-62
2023/08/28 09:22:13;;;;;;;4.17;2.33;;;14.70;99.90;;;;;;5042719;28;20573;-61
2023/08/28 09:24:39;;;;;;;3.93;1.90;;;14.70;99.90;;;;;;5042345;28;20792;-61
2023/08/28 09:27:05;;;;;;;3.40;2.30;;;14.60;99.90;;;;;;5048053;28;20225;-60
2023/08/28 09:29:30;;;;;;;2.67;2.40;;;14.60;99.90;;;;;;5040729;28;20192;-60
2023/08/28 09:32:03;;;;;;;6.73;2.33;;;14.60;99.90;;;;;;5044186;28;20286;-60
2023/08/28 09:34:39;;;;;;;2.87;2.40;;;14.60;99.90;;;;;;5045594;28;20210;-61
2023/08/28 09:37:11;;;;;;;2.30;2.07;;;14.70;99.90;;;;;;5047993;28;20429;-61
2023/08/28 09:39:40;;;;;;;3.30;2.03;;;14.60;99.90;;;;;;5041206;28;20496;-60
2023/08/28 09:42:08;;;;;;;3.13;2.20;;;14.70;99.90;;;;;;5036025;28;20476;-60
2023/08/28 09:44:37;;;;;;;7.53;2.60;;;14.70;99.90;;;;;;5033774;28;20935;-61
2023/08/28 09:47:03;;;;;;;2.70;2.50;;;14.70;99.90;;;;;;5036576;28;20949;-60
2023/08/28 09:49:29;;;;;;;5.47;2.30;;;14.70;99.90;;;;;;5045717;28;20510;-61
2023/08/28 09:51:57;;;;;;;2.73;2.53;;;14.70;99.90;;;;;;5047390;28;20485;-61
2023/08/28 09:54:24;;;;;;;2.30;2.10;;;14.70;99.90;;;;;;5049679;28;20179;-60
2023/08/28 09:56:51;;;;;;;3.03;2.37;;;14.70;99.90;;;;;;5045551;28;20513;-60
2023/08/28 09:59:16;;;;;;;4.77;2.23;;;14.70;99.90;;;;;;5050042;28;21013;-61
2023/08/28 10:01:42;;;;;;;4.93;3.40;;;14.70;99.90;;;;;;5049577;28;20461;-61
2023/08/28 10:04:10;;;;;;;5.57;2.70;;;14.70;99.90;;;;;;5048741;28;20183;-61
2023/08/28 10:06:44;;;;;;;9.80;3.03;;;14.70;99.90;;;;;;5051407;28;20457;-60
2023/08/28 10:09:18;;;;;;;3.37;2.30;;;14.70;99.90;;;;;;5051631;28;20491;-60
2023/08/28 10:11:45;;;;;;;2.80;2.53;;;14.70;99.90;;;;;;5044407;28;20484;-60
2023/08/28 10:14:11;;;;;;;3.00;2.40;;;14.70;99.90;;;;;;5049733;28;20449;-62
2023/08/28 10:16:49;;;;;;;2.90;2.37;;;14.80;99.90;;;;;;5042579;28;20444;-62
2023/08/28 10:19:38;;;;;;;2.77;2.40;;;14.80;99.90;;;;;;5047163;28;20465;-62
2023/08/28 10:22:07;;;;;;;2.50;2.23;;;14.90;99.90;;;;;;5045328;28;20483;-60
2023/08/28 10:24:41;;;;;;;3.80;2.20;;;14.90;99.90;;;;;;5049572;28;20572;-60
2023/08/28 10:27:08;;;;;;;3.03;2.50;;;14.80;99.90;;;;;;5046225;28;21096;-60
2023/08/28 10:29:34;;;;;;;3.73;2.23;;;14.80;99.90;;;;;;5042844;28;20460;-60
2023/08/28 10:32:01;;;;;;;3.60;2.57;;;14.80;99.90;;;;;;5050128;28;21119;-61
2023/08/28 10:34:28;;;;;;;3.77;2.10;;;14.80;99.90;;;;;;5045595;28;20489;-60
2023/08/28 10:36:54;;;;;;;3.67;2.03;;;14.80;99.90;;;;;;5046890;28;20444;-61
2023/08/28 10:39:20;;;;;;;3.33;2.03;;;14.80;99.90;;;;;;5042348;28;20544;-60
2023/08/28 10:41:47;;;;;;;2.50;2.30;;;14.80;99.90;;;;;;5044937;28;20553;-61
2023/08/28 10:44:14;;;;;;;2.73;2.47;;;14.80;99.90;;;;;;5036912;28;20600;-59
2023/08/28 10:46:40;;;;;;;4.17;2.63;;;14.90;99.90;;;;;;5044654;28;20491;-61
2023/08/28 10:49:07;;;;;;;2.00;1.90;;;14.80;99.90;;;;;;5047341;28;20438;-62
2023/08/28 10:51:36;;;;;;;3.60;2.00;;;14.90;99.90;;;;;;5048820;28;20469;-59
2023/08/28 10:54:06;;;;;;;5.03;2.10;;;14.90;99.90;;;;;;5043723;28;20863;-60
2023/08/28 10:56:35;;;;;;;3.13;2.20;;;14.90;99.90;;;;;;5042440;28;20452;-60
2023/08/28 10:59:24;;;;;;;3.00;2.10;;;14.90;99.90;;;;;;5046865;28;20490;-60
2023/08/28 11:01:59;;;;;;;3.07;2.40;;;14.90;99.90;;;;;;5046362;28;20599;-60
2023/08/28 11:04:35;;;;;;;4.50;1.97;;;14.90;99.90;;;;;;5049884;28;20843;-59
2023/08/28 11:07:02;;;;;;;3.40;1.90;;;15.00;99.90;;;;;;5047382;28;20516;-60
2023/08/28 11:09:28;;;;;;;3.90;2.10;;;14.90;99.90;;;;;;5048029;28;20426;-60
2023/08/28 11:12:02;;;;;;;3.30;2.67;;;14.90;99.90;;;;;;5046127;28;20499;-59
2023/08/28 11:14:38;;;;;;;3.03;1.90;;;14.90;99.90;;;;;;5042381;28;20178;-60
2023/08/28 11:17:04;;;;;;;3.07;2.63;;;15.00;99.90;;;;;;5043934;28;20860;-60
2023/08/28 11:19:30;;;;;;;2.23;2.03;;;15.00;99.90;;;;;;5047399;28;20470;-60
2023/08/28 11:22:03;;;;;;;4.70;2.13;;;15.10;99.90;;;;;;5047491;28;20199;-59
2023/08/28 11:24:31;;;;;;;2.80;2.50;;;15.10;99.90;;;;;;5049253;28;20229;-61
2023/08/28 11:26:56;;;;;;;2.10;1.90;;;15.20;99.90;;;;;;5046048;28;20506;-59
2023/08/28 11:29:26;;;;;;;2.97;2.00;;;15.30;99.90;;;;;;5041146;28;20934;-60
2023/08/28 11:31:52;;;;;;;2.20;2.00;;;15.30;99.90;;;;;;5043224;28;20627;-60
2023/08/28 11:34:18;;;;;;;2.50;2.20;;;15.30;99.90;;;;;;5050683;28;20723;-61
2023/08/28 11:36:45;;;;;;;2.03;1.83;;;15.30;99.90;;;;;;5048516;28;20198;-60
2023/08/28 11:39:23;;;;;;;1.97;1.87;;;15.30;99.90;;;;;;5045876;28;20341;-60
2023/08/28 11:41:52;;;;;;;2.30;2.10;;;15.20;99.90;;;;;;5042291;28;20453;-60
2023/08/28 11:44:17;;;;;;;2.23;2.03;;;15.10;99.90;;;;;;5044204;28;20418;-60
2023/08/28 11:46:43;;;;;;;2.50;2.30;;;15.10;99.90;;;;;;5045897;28;20588;-60
2023/08/28 11:49:10;;;;;;;6.47;2.70;;;15.00;99.90;;;;;;5046221;28;20640;-60
2023/08/28 11:51:36;;;;;;;2.30;2.20;;;15.00;99.90;;;;;;5042664;28;20206;-60
2023/08/28 11:54:03;;;;;;;3.50;2.50;;;15.00;99.90;;;;;;5047528;28;20809;-60
2023/08/28 11:56:33;;;;;;;2.97;2.60;;;14.90;99.90;;;;;;5049944;28;20195;-62
2023/08/28 11:58:59;;;;;;;2.57;2.30;;;14.90;99.90;;;;;;5049752;28;20488;-61
2023/08/28 12:01:27;;;;;;;3.03;2.73;;;14.90;99.90;;;;;;5046324;28;20461;-61
2023/08/28 12:04:00;;;;;;;5.47;2.40;;;14.90;99.90;;;;;;5048591;28;20175;-60
2023/08/28 12:06:28;;;;;;;4.50;3.00;;;14.90;99.90;;;;;;5043850;28;20498;-61
2023/08/28 12:08:53;;;;;;;5.17;2.70;;;14.80;99.90;;;;;;5049284;28;20941;-60
2023/08/28 12:11:19;;;;;;;9.63;3.37;;;14.70;99.90;;;;;;5046261;28;20457;-62
2023/08/28 12:13:45;;;;;;;3.50;2.67;;;14.70;99.90;;;;;;5043329;28;20262;-60
2023/08/28 12:16:20;;;;;;;4.23;3.47;;;14.70;99.90;;;;;;5046514;28;20183;-62
2023/08/28 12:18:46;;;;;;;3.17;2.87;;;14.70;99.90;;;;;;5048210;28;20228;-60
2023/08/28 12:21:12;;;;;;;3.43;2.60;;;14.70;99.90;;;;;;5044413;28;20605;-62
2023/08/28 12:23:56;;;;;;;3.03;2.67;;;14.60;99.90;;;;;;5040341;28;20524;-60
2023/08/28 12:26:25;;;;;;;5.63;4.20;;;14.50;99.90;;;;;;5037493;28;20184;-60
2023/08/28 12:28:52;;;;;;;5.40;3.17;;;14.50;99.90;;;;;;5039762;28;20445;-60
2023/08/28 12:31:32;;;;;;;7.97;2.60;;;14.50;99.90;;;;;;5048019;28;20457;-62
2023/08/28 12:34:09;;;;;;;3.73;3.00;;;14.50;99.90;;;;;;5039264;28;20437;-61
2023/08/28 12:36:45;;;;;;;5.07;3.00;;;14.60;99.90;;;;;;5045127;28;20417;-61
2023/08/28 12:39:16;;;;;;;3.10;2.73;;;14.60;99.90;;;;;;5042999;28;20480;-61
2023/08/28 12:41:52;;;;;;;4.23;2.83;;;14.60;99.90;;;;;;5046811;28;21210;-60
2023/08/28 12:44:19;;;;;;;4.00;2.53;;;14.50;99.90;;;;;;5035972;28;20429;-60
2023/08/28 12:46:45;;;;;;;2.77;2.20;;;14.50;99.90;;;;;;5045618;28;20440;-60